createdAt,value
2018-11-01T00:00:32.257Z,20.50
2018-11-01T00:02:59.359Z,20.50
2018-11-01T00:05:26.482Z,20.40
2018-11-01T00:07:53.616Z,20.40
2018-11-01T00:10:20.755Z,20.40
2018-11-01T00:12:47.859Z,20.40
2018-11-01T00:15:15.520Z,20.40
2018-11-01T00:17:42.623Z,20.40
2018-11-01T00:20:11.361Z,20.40
2018-11-01T00:22:38.472Z,20.40
2018-11-01T00:25:06.468Z,20.30
2018-11-01T00:27:33.555Z,20.30
2018-11-01T00:30:00.663Z,20.30
2018-11-01T00:32:27.780Z,20.30
2018-11-01T00:34:54.999Z,20.30
2018-11-01T00:37:22.123Z,20.30
2018-11-01T00:39:49.191Z,20.30
2018-11-01T00:42:16.312Z,20.30
2018-11-01T00:44:43.407Z,20.20
2018-11-01T00:47:10.532Z,20.30
2018-11-01T00:49:37.654Z,20.20
2018-11-01T00:52:04.718Z,20.20
2018-11-01T00:54:31.807Z,20.20
2018-11-01T00:56:58.964Z,20.20
2018-11-01T00:59:26.067Z,20.20
2018-11-01T01:01:53.174Z,20.20
2018-11-01T01:04:20.307Z,20.20
2018-11-01T01:06:47.405Z,20.20
2018-11-01T01:09:14.511Z,20.10
2018-11-01T01:11:41.838Z,20.10
2018-11-01T01:14:09.422Z,20.10
2018-11-01T01:16:36.644Z,20.10
2018-11-01T01:19:04.353Z,20.10
2018-11-01T01:21:31.379Z,20.10
2018-11-01T01:23:58.472Z,20.10
2018-11-01T01:26:25.548Z,20.10
2018-11-01T01:28:52.686Z,20.10
2018-11-01T01:31:19.796Z,20.10
2018-11-01T01:33:46.902Z,20.10
2018-11-01T01:36:14.013Z,20.00
2018-11-01T01:38:41.099Z,20.00
2018-11-01T01:41:08.191Z,20.00
2018-11-01T01:43:35.326Z,20.00
2018-11-01T01:46:02.428Z,20.00
2018-11-01T01:48:29.508Z,20.00
2018-11-01T01:50:56.606Z,20.00
2018-11-01T01:53:23.732Z,20.00
2018-11-01T01:55:50.815Z,19.90
2018-11-01T01:58:17.926Z,20.00
2018-11-01T02:00:45.020Z,19.90
2018-11-01T02:03:12.132Z,20.00
2018-11-01T02:05:39.226Z,19.90
2018-11-01T02:08:06.331Z,20.00
2018-11-01T02:10:33.442Z,19.90
2018-11-01T02:13:00.584Z,19.90
2018-11-01T02:15:27.682Z,19.90
2018-11-01T02:17:54.777Z,19.90
2018-11-01T02:20:21.871Z,19.90
2018-11-01T02:22:48.990Z,19.90
2018-11-01T02:25:16.091Z,19.90
2018-11-01T02:27:48.984Z,19.90
2018-11-01T02:30:16.883Z,19.80
2018-11-01T02:32:44.518Z,19.80
2018-11-01T02:35:12.706Z,19.80
2018-11-01T02:37:39.770Z,19.80
2018-11-01T02:40:07.252Z,19.80
2018-11-01T02:42:34.440Z,19.80
2018-11-01T02:45:01.539Z,19.80
2018-11-01T02:47:28.650Z,19.80
2018-11-01T02:49:55.752Z,19.80
2018-11-01T02:52:22.934Z,19.80
2018-11-01T02:54:50.040Z,19.80
2018-11-01T02:57:17.150Z,19.80
2018-11-01T02:59:44.247Z,19.80
2018-11-01T03:02:11.340Z,19.70
2018-11-01T03:04:38.431Z,19.70
2018-11-01T03:07:05.535Z,19.70
2018-11-01T03:09:32.627Z,19.70
2018-11-01T03:11:59.710Z,19.70
2018-11-01T03:14:26.782Z,19.70
2018-11-01T03:16:53.959Z,19.70
2018-11-01T03:19:21.005Z,19.70
2018-11-01T03:21:48.087Z,19.70
2018-11-01T03:24:15.195Z,19.70
2018-11-01T03:26:42.404Z,19.70
2018-11-01T03:29:09.519Z,19.60
2018-11-01T03:31:36.671Z,19.60
2018-11-01T03:34:04.034Z,19.70
2018-11-01T03:36:31.144Z,19.60
2018-11-01T03:38:58.394Z,19.60
2018-11-01T03:41:25.377Z,19.60
2018-11-01T03:43:52.483Z,19.60
2018-11-01T03:46:19.607Z,19.60
2018-11-01T03:48:46.722Z,19.60
2018-11-01T03:51:13.824Z,19.60
2018-11-01T03:53:41.011Z,19.60
2018-11-01T03:56:08.044Z,19.60
2018-11-01T03:58:35.148Z,19.60
2018-11-01T04:01:02.231Z,19.50
2018-11-01T04:03:29.452Z,19.50
2018-11-01T04:05:56.557Z,19.50
2018-11-01T04:08:23.649Z,19.50
2018-11-01T04:10:50.770Z,19.50
2018-11-01T04:13:17.923Z,19.50
2018-11-01T04:15:45.023Z,19.50
2018-11-01T04:18:12.131Z,19.50
2018-11-01T04:20:39.257Z,19.50
2018-11-01T04:23:06.361Z,19.50
2018-11-01T04:25:33.438Z,19.50
2018-11-01T04:28:00.576Z,19.50
2018-11-01T04:30:27.683Z,19.50
2018-11-01T04:32:54.829Z,19.50
2018-11-01T04:35:21.918Z,19.50
2018-11-01T04:37:49.016Z,19.50
2018-11-01T04:40:16.119Z,19.40
2018-11-01T04:42:43.234Z,19.40
2018-11-01T04:45:11.242Z,19.40
2018-11-01T04:47:38.482Z,19.40
2018-11-01T04:50:06.155Z,19.40
2018-11-01T04:52:33.246Z,19.40
2018-11-01T04:55:00.320Z,19.40
2018-11-01T04:57:27.460Z,19.40
2018-11-01T04:59:54.555Z,19.40
2018-11-01T05:02:21.671Z,19.40
2018-11-01T05:04:48.818Z,19.40
2018-11-01T05:07:15.891Z,19.40
2018-11-01T05:09:42.994Z,19.40
2018-11-01T05:12:10.080Z,19.40
2018-11-01T05:14:37.206Z,19.30
2018-11-01T05:17:04.507Z,19.40
2018-11-01T05:19:31.627Z,19.40
2018-11-01T05:21:58.722Z,19.40
2018-11-01T05:24:25.836Z,19.30
2018-11-01T05:26:52.943Z,19.40
2018-11-01T05:29:20.091Z,19.30
2018-11-01T05:31:47.217Z,19.30
2018-11-01T05:34:14.323Z,19.30
2018-11-01T05:36:41.424Z,19.30
2018-11-01T05:39:09.508Z,19.30
2018-11-01T05:41:36.629Z,19.30
2018-11-01T05:44:03.994Z,19.30
2018-11-01T05:46:31.087Z,19.30
2018-11-01T05:48:58.187Z,19.30
2018-11-01T05:51:25.283Z,19.30
2018-11-01T05:53:52.389Z,19.30
2018-11-01T05:56:19.519Z,19.20
2018-11-01T05:58:46.615Z,19.20
2018-11-01T06:01:14.079Z,19.20
2018-11-01T06:03:41.604Z,19.20
2018-11-01T06:06:08.701Z,19.20
2018-11-01T06:08:39.374Z,19.20
2018-11-01T06:11:06.481Z,19.20
2018-11-01T06:13:33.551Z,19.20
2018-11-01T06:16:00.727Z,19.20
2018-11-01T06:18:27.848Z,19.20
2018-11-01T06:20:54.936Z,19.20
2018-11-01T06:23:22.019Z,19.20
2018-11-01T06:25:49.148Z,19.20
2018-11-01T06:28:16.565Z,19.20
2018-11-01T06:30:43.683Z,19.20
2018-11-01T06:33:10.813Z,19.10
2018-11-01T06:35:39.968Z,19.00
2018-11-01T06:38:07.107Z,18.80
2018-11-01T06:40:34.201Z,18.70
2018-11-01T06:43:01.328Z,18.60
2018-11-01T06:45:28.435Z,18.50
2018-11-01T06:47:55.550Z,18.40
2018-11-01T06:50:22.671Z,18.30
2018-11-01T06:52:49.795Z,18.30
2018-11-01T06:55:16.907Z,18.30
2018-11-01T06:57:44.018Z,18.20
2018-11-01T07:00:12.544Z,18.20
2018-11-01T07:02:39.857Z,18.10
2018-11-01T07:05:07.139Z,18.10
2018-11-01T07:07:34.600Z,18.00
2018-11-01T07:10:01.743Z,18.10
2018-11-01T07:12:28.847Z,18.30
2018-11-01T07:14:55.931Z,18.30
2018-11-01T07:17:23.299Z,18.40
2018-11-01T07:19:50.291Z,18.50
2018-11-01T07:22:17.407Z,18.50
2018-11-01T07:24:44.528Z,18.60
2018-11-01T07:27:11.660Z,18.60
2018-11-01T07:29:38.771Z,18.60
2018-11-01T07:32:06.226Z,18.60
2018-11-01T07:34:33.317Z,18.70
2018-11-01T07:37:00.412Z,18.70
2018-11-01T07:39:27.523Z,18.70
2018-11-01T07:41:54.619Z,18.60
2018-11-01T07:44:21.754Z,18.60
2018-11-01T07:46:48.862Z,18.60
2018-11-01T07:49:15.974Z,18.50
2018-11-01T07:51:43.062Z,18.60
2018-11-01T07:54:10.191Z,18.50
2018-11-01T07:56:37.341Z,18.60
2018-11-01T07:59:04.468Z,18.60
2018-11-01T08:01:32.299Z,18.90
2018-11-01T08:03:59.795Z,19.30
2018-11-01T08:06:26.916Z,19.70
2018-11-01T08:08:54.042Z,19.90
2018-11-01T08:11:21.247Z,20.20
2018-11-01T08:13:48.385Z,20.30
2018-11-01T08:16:15.521Z,20.50
2018-11-01T08:18:43.014Z,20.60
2018-11-01T08:21:10.269Z,20.70
2018-11-01T08:23:37.266Z,20.80
2018-11-01T08:26:04.504Z,20.90
2018-11-01T08:28:31.635Z,21.00
2018-11-01T08:30:58.763Z,21.00
2018-11-01T08:33:25.895Z,21.10
2018-11-01T08:35:53.131Z,21.20
2018-11-01T08:38:20.252Z,21.20
2018-11-01T08:40:47.366Z,21.20
2018-11-01T08:43:14.464Z,21.30
2018-11-01T08:45:41.590Z,21.40
2018-11-01T08:48:08.797Z,21.40
2018-11-01T08:50:35.924Z,21.50
2018-11-01T08:53:03.055Z,21.50
2018-11-01T08:55:30.166Z,21.60
2018-11-01T08:57:57.312Z,21.70
2018-11-01T09:00:24.416Z,21.70
2018-11-01T09:02:51.533Z,21.70
2018-11-01T09:05:18.671Z,21.70
2018-11-01T09:07:45.902Z,21.70
2018-11-01T09:10:15.089Z,21.60
2018-11-01T09:12:42.313Z,21.60
2018-11-01T09:15:10.448Z,21.60
2018-11-01T09:17:37.781Z,21.80
2018-11-01T09:20:05.656Z,21.80
2018-11-01T09:22:32.775Z,21.80
2018-11-01T09:24:59.898Z,21.90
2018-11-01T09:27:27.135Z,21.90
2018-11-01T09:29:54.379Z,22.00
2018-11-01T09:32:21.557Z,22.00
2018-11-01T09:34:48.657Z,22.10
2018-11-01T09:37:16.162Z,22.10
2018-11-01T09:39:43.675Z,22.20
2018-11-01T09:42:11.110Z,22.20
2018-11-01T09:44:38.248Z,22.30
2018-11-01T09:47:05.761Z,22.30
2018-11-01T09:49:32.519Z,22.30
2018-11-01T09:52:00.365Z,22.30
2018-11-01T09:54:27.467Z,22.40
2018-11-01T09:56:54.571Z,22.40
2018-11-01T09:59:21.695Z,22.50
2018-11-01T10:01:49.239Z,22.50
2018-11-01T10:04:16.756Z,22.50
2018-11-01T10:06:43.994Z,22.50
2018-11-01T10:09:11.076Z,22.60
2018-11-01T10:11:38.188Z,22.60
2018-11-01T10:14:05.683Z,22.60
2018-11-01T10:16:32.957Z,22.70
2018-11-01T10:19:00.023Z,22.50
2018-11-01T10:21:27.321Z,22.70
2018-11-01T10:23:54.427Z,22.60
2018-11-01T10:26:21.577Z,22.60
2018-11-01T10:28:48.708Z,22.60
2018-11-01T10:31:15.835Z,22.70
2018-11-01T10:33:43.033Z,22.80
2018-11-01T10:36:10.143Z,22.90
2018-11-01T10:38:37.244Z,23.00
2018-11-01T10:41:04.416Z,23.10
2018-11-01T10:43:31.808Z,23.10
2018-11-01T10:45:58.952Z,23.20
2018-11-01T10:48:26.095Z,23.20
2018-11-01T10:50:53.249Z,23.30
2018-11-01T10:53:20.371Z,23.30
2018-11-01T10:55:47.506Z,23.40
2018-11-01T10:58:15.115Z,23.40
2018-11-01T11:00:48.604Z,23.50
2018-11-01T11:03:15.631Z,23.50
2018-11-01T11:05:42.738Z,23.60
2018-11-01T11:08:09.842Z,23.60
2018-11-01T11:10:36.942Z,23.60
2018-11-01T11:13:04.103Z,23.60
2018-11-01T11:15:31.246Z,23.60
2018-11-01T11:17:58.358Z,23.60
2018-11-01T11:20:25.543Z,23.60
2018-11-01T11:22:52.641Z,23.60
2018-11-01T11:25:19.758Z,23.60
2018-11-01T11:27:46.875Z,23.50
2018-11-01T11:30:14.157Z,23.50
2018-11-01T11:32:41.115Z,23.40
2018-11-01T11:35:09.068Z,23.40
2018-11-01T11:37:36.179Z,23.40
2018-11-01T11:40:03.565Z,23.40
2018-11-01T11:42:30.657Z,23.50
2018-11-01T11:44:57.789Z,23.60
2018-11-01T11:47:24.891Z,23.70
2018-11-01T11:49:51.980Z,23.70
2018-11-01T11:52:19.068Z,23.70
2018-11-01T11:54:46.195Z,23.70
2018-11-01T11:57:13.375Z,23.70
2018-11-01T11:59:40.461Z,23.80
2018-11-01T12:02:07.642Z,23.90
2018-11-01T12:04:34.711Z,23.90
2018-11-01T12:07:01.850Z,23.90
2018-11-01T12:09:28.964Z,23.90
2018-11-01T12:11:56.103Z,23.90
2018-11-01T12:14:23.331Z,23.80
2018-11-01T12:16:50.415Z,23.80
2018-11-01T12:19:17.528Z,23.90
2018-11-01T12:21:44.651Z,24.00
2018-11-01T12:24:11.786Z,24.00
2018-11-01T12:26:39.052Z,24.10
2018-11-01T12:29:06.516Z,24.10
2018-11-01T12:31:33.999Z,24.10
2018-11-01T12:34:01.144Z,24.10
2018-11-01T12:36:28.290Z,24.10
2018-11-01T12:38:55.514Z,24.00
2018-11-01T12:41:22.973Z,24.00
2018-11-01T12:43:50.072Z,24.00
2018-11-01T12:46:17.191Z,23.90
2018-11-01T12:48:44.361Z,23.80
2018-11-01T12:51:11.460Z,23.70
2018-11-01T12:53:38.565Z,23.60
2018-11-01T12:56:05.835Z,23.60
2018-11-01T12:58:32.947Z,23.60
2018-11-01T13:01:00.055Z,23.60
2018-11-01T13:03:27.199Z,23.70
2018-11-01T13:05:54.292Z,23.70
2018-11-01T13:08:21.407Z,23.70
2018-11-01T13:10:48.602Z,23.80
2018-11-01T13:13:15.695Z,23.80
2018-11-01T13:15:42.813Z,23.80
2018-11-01T13:18:10.049Z,23.80
2018-11-01T13:20:37.069Z,23.80
2018-11-01T13:23:04.411Z,23.70
2018-11-01T13:25:31.530Z,23.70
2018-11-01T13:27:58.665Z,23.60
2018-11-01T13:30:25.895Z,23.60
2018-11-01T13:32:53.271Z,23.60
2018-11-01T13:35:20.434Z,23.60
2018-11-01T13:37:47.519Z,23.50
2018-11-01T13:40:15.000Z,23.50
2018-11-01T13:42:41.827Z,23.40
2018-11-01T13:45:09.342Z,23.30
2018-11-01T13:47:36.510Z,23.30
2018-11-01T13:50:04.594Z,23.10
2018-11-01T13:52:31.695Z,23.00
2018-11-01T13:54:58.830Z,22.90
2018-11-01T13:57:25.928Z,22.90
2018-11-01T13:59:53.055Z,22.80
2018-11-01T14:02:20.167Z,22.70
2018-11-01T14:04:47.330Z,22.70
2018-11-01T14:07:14.443Z,22.70
2018-11-01T14:09:41.548Z,22.70
2018-11-01T14:12:08.674Z,22.60
2018-11-01T14:14:36.368Z,22.60
2018-11-01T14:17:02.908Z,22.50
2018-11-01T14:19:30.007Z,22.50
2018-11-01T14:21:57.104Z,22.50
2018-11-01T14:24:24.360Z,22.50
2018-11-01T14:26:51.475Z,22.40
2018-11-01T14:29:18.567Z,22.40
2018-11-01T14:31:45.676Z,22.40
2018-11-01T14:34:13.138Z,22.40
2018-11-01T14:36:40.231Z,22.30
2018-11-01T14:39:08.702Z,22.30
2018-11-01T14:41:35.841Z,22.20
2018-11-01T14:44:03.036Z,22.20
2018-11-01T14:46:30.492Z,22.20
2018-11-01T14:48:57.635Z,22.20
2018-11-01T14:51:24.755Z,22.20
2018-11-01T14:53:52.342Z,22.10
2018-11-01T14:56:20.671Z,22.10
2018-11-01T14:58:47.895Z,22.10
2018-11-01T15:01:13.587Z,22.10
2018-11-01T15:03:41.616Z,22.10
2018-11-01T15:06:08.740Z,22.10
2018-11-01T15:08:35.835Z,22.10
2018-11-01T15:11:02.929Z,22.10
2018-11-01T15:13:30.019Z,22.00
2018-11-01T15:15:57.107Z,22.00
2018-11-01T15:18:24.266Z,22.00
2018-11-01T15:20:51.362Z,21.90
2018-11-01T15:23:18.488Z,21.90
2018-11-01T15:25:45.597Z,21.90
2018-11-01T15:28:12.797Z,21.90
2018-11-01T15:30:39.967Z,21.90
2018-11-01T15:33:07.075Z,21.80
2018-11-01T15:35:34.183Z,21.80
2018-11-01T15:38:01.291Z,21.80
2018-11-01T15:40:28.359Z,21.80
2018-11-01T15:42:55.469Z,21.80
2018-11-01T15:45:22.538Z,21.80
2018-11-01T15:47:49.620Z,21.80
2018-11-01T15:50:16.752Z,21.80
2018-11-01T15:52:43.986Z,21.80
2018-11-01T15:55:11.107Z,21.70
2018-11-01T15:57:38.263Z,21.80
2018-11-01T16:00:07.396Z,21.80
2018-11-01T16:02:34.551Z,21.80
2018-11-01T16:05:01.634Z,21.80
2018-11-01T16:07:28.850Z,21.70
2018-11-01T16:09:56.038Z,21.60
2018-11-01T16:12:23.094Z,21.70
2018-11-01T16:14:50.349Z,21.60
2018-11-01T16:17:17.490Z,21.60
2018-11-01T16:19:44.611Z,21.60
2018-11-01T16:22:11.671Z,21.60
2018-11-01T16:24:38.779Z,21.60
2018-11-01T16:27:06.170Z,21.60
2018-11-01T16:29:33.223Z,21.60
2018-11-01T16:32:00.327Z,21.60
2018-11-01T16:34:27.471Z,21.60
2018-11-01T16:36:54.724Z,21.60
2018-11-01T16:39:21.731Z,21.60
2018-11-01T16:41:48.802Z,21.50
2018-11-01T16:44:16.054Z,21.50
2018-11-01T16:46:43.154Z,21.50
2018-11-01T16:49:10.323Z,21.50
2018-11-01T16:51:37.533Z,21.50
2018-11-01T16:54:04.712Z,21.50
2018-11-01T16:56:31.817Z,21.50
2018-11-01T16:58:58.970Z,21.50
2018-11-01T17:01:26.163Z,21.60
2018-11-01T17:03:53.256Z,21.60
2018-11-01T17:06:20.410Z,21.60
2018-11-01T17:08:47.539Z,21.60
2018-11-01T17:11:14.651Z,21.60
2018-11-01T17:13:41.742Z,21.60
2018-11-01T17:16:08.839Z,21.60
2018-11-01T17:18:35.939Z,21.60
2018-11-01T17:21:03.049Z,21.60
2018-11-01T17:23:30.340Z,21.60
2018-11-01T17:25:57.456Z,21.60
2018-11-01T17:28:24.555Z,21.60
2018-11-01T17:30:51.738Z,21.60
2018-11-01T17:33:18.842Z,21.60
2018-11-01T17:35:45.982Z,21.60
2018-11-01T17:38:13.103Z,21.50
2018-11-01T17:40:40.224Z,21.50
2018-11-01T17:43:07.352Z,21.50
2018-11-01T17:45:34.551Z,21.50
2018-11-01T17:48:01.628Z,21.50
2018-11-01T17:50:28.739Z,21.50
2018-11-01T17:52:55.858Z,21.50
2018-11-01T17:55:22.974Z,21.60
2018-11-01T17:57:50.172Z,21.50
2018-11-01T18:00:17.915Z,21.50
2018-11-01T18:02:45.067Z,21.50
2018-11-01T18:05:12.400Z,21.50
2018-11-01T18:07:40.024Z,21.50
2018-11-01T18:10:08.097Z,21.50
2018-11-01T18:12:35.181Z,21.50
2018-11-01T18:15:02.292Z,21.50
2018-11-01T18:17:29.427Z,21.40
2018-11-01T18:19:56.603Z,21.40
2018-11-01T18:22:23.786Z,21.40
2018-11-01T18:24:50.915Z,21.40
2018-11-01T18:27:18.095Z,21.40
2018-11-01T18:29:45.593Z,21.40
2018-11-01T18:32:12.715Z,21.40
2018-11-01T18:34:39.833Z,21.40
2018-11-01T18:37:07.150Z,21.40
2018-11-01T18:39:34.346Z,21.40
2018-11-01T18:42:01.407Z,21.40
2018-11-01T18:44:28.521Z,21.30
2018-11-01T18:46:55.643Z,21.30
2018-11-01T18:49:22.746Z,21.20
2018-11-01T18:51:49.869Z,21.10
2018-11-01T18:54:17.136Z,21.00
2018-11-01T18:56:44.110Z,20.90
2018-11-01T18:59:11.220Z,20.90
2018-11-01T19:01:38.341Z,20.80
2018-11-01T19:04:05.461Z,20.80
2018-11-01T19:06:32.596Z,20.70
2018-11-01T19:08:59.726Z,20.70
2018-11-01T19:11:26.857Z,20.60
2018-11-01T19:13:54.156Z,20.60
2018-11-01T19:16:21.127Z,20.60
2018-11-01T19:18:48.271Z,20.50
2018-11-01T19:21:15.397Z,20.50
2018-11-01T19:23:42.504Z,20.50
2018-11-01T19:26:09.655Z,20.50
2018-11-01T19:28:36.740Z,20.40
2018-11-01T19:31:04.127Z,20.40
2018-11-01T19:33:31.256Z,20.40
2018-11-01T19:35:58.355Z,20.40
2018-11-01T19:38:25.472Z,20.40
2018-11-01T19:40:52.580Z,20.40
2018-11-01T19:43:19.695Z,20.30
2018-11-01T19:45:46.815Z,20.30
2018-11-01T19:48:13.991Z,20.30
2018-11-01T19:50:41.058Z,20.30
2018-11-01T19:53:08.226Z,20.30
2018-11-01T19:55:35.307Z,20.20
2018-11-01T19:58:02.443Z,20.20
2018-11-01T20:00:29.547Z,20.20
2018-11-01T20:02:56.639Z,20.20
2018-11-01T20:05:23.811Z,20.20
2018-11-01T20:07:50.920Z,20.20
2018-11-01T20:10:18.077Z,20.20
2018-11-01T20:12:45.145Z,20.20
2018-11-01T20:15:12.283Z,20.20
2018-11-01T20:17:39.645Z,20.30
2018-11-01T20:20:08.440Z,20.40
2018-11-01T20:22:35.540Z,20.50
2018-11-01T20:25:02.685Z,20.50
2018-11-01T20:27:29.804Z,20.50
2018-11-01T20:29:56.899Z,20.50
2018-11-01T20:32:24.049Z,20.50
2018-11-01T20:34:51.155Z,20.50
2018-11-01T20:37:18.263Z,20.40
2018-11-01T20:39:45.375Z,20.30
2018-11-01T20:42:12.488Z,20.20
2018-11-01T20:44:39.559Z,20.20
2018-11-01T20:47:06.646Z,20.20
2018-11-01T20:49:33.783Z,20.10
2018-11-01T20:52:00.867Z,20.10
2018-11-01T20:54:27.965Z,20.10
2018-11-01T20:56:55.100Z,20.10
2018-11-01T20:59:22.223Z,20.00
2018-11-01T21:01:49.308Z,20.00
2018-11-01T21:04:16.428Z,20.00
2018-11-01T21:06:43.540Z,20.00
2018-11-01T21:09:11.103Z,20.00
2018-11-01T21:11:38.479Z,20.00
2018-11-01T21:14:05.476Z,19.90
2018-11-01T21:16:32.552Z,19.90
2018-11-01T21:18:59.630Z,19.90
2018-11-01T21:21:26.739Z,19.90
2018-11-01T21:23:53.908Z,19.90
2018-11-01T21:26:21.114Z,19.90
2018-11-01T21:28:48.311Z,19.90
2018-11-01T21:31:16.319Z,19.90
2018-11-01T21:33:43.755Z,19.90
2018-11-01T21:36:10.872Z,19.90
2018-11-01T21:38:37.998Z,19.90
2018-11-01T21:41:05.257Z,19.80
2018-11-01T21:43:32.382Z,19.80
2018-11-01T21:45:59.510Z,19.80
2018-11-01T21:48:26.671Z,19.80
2018-11-01T21:50:53.967Z,19.80
2018-11-01T21:53:21.241Z,19.80
2018-11-01T21:55:48.290Z,19.80
2018-11-01T21:58:15.385Z,19.80
2018-11-01T22:00:42.525Z,19.80
2018-11-01T22:03:09.624Z,19.70
2018-11-01T22:05:36.750Z,19.70
2018-11-01T22:08:03.959Z,19.70
2018-11-01T22:10:31.189Z,19.70
2018-11-01T22:12:58.970Z,19.70
2018-11-01T22:15:26.070Z,19.70
2018-11-01T22:17:53.181Z,19.70
2018-11-01T22:20:20.315Z,19.70
2018-11-01T22:22:47.487Z,19.70
2018-11-01T22:25:14.597Z,19.70
2018-11-01T22:27:41.708Z,19.70
2018-11-01T22:30:09.540Z,19.70
2018-11-01T22:32:36.690Z,19.60
2018-11-01T22:35:04.211Z,19.60
2018-11-01T22:37:31.342Z,19.60
2018-11-01T22:39:58.425Z,19.60
2018-11-01T22:42:25.537Z,19.60
2018-11-01T22:44:52.628Z,19.60
2018-11-01T22:47:19.728Z,19.60
2018-11-01T22:49:46.838Z,19.60
2018-11-01T22:52:13.966Z,19.60
2018-11-01T22:54:41.070Z,19.60
2018-11-01T22:57:08.195Z,19.50
2018-11-01T22:59:35.289Z,19.60
2018-11-01T23:02:02.406Z,19.60
2018-11-01T23:04:29.579Z,19.50
2018-11-01T23:06:56.791Z,19.50
2018-11-01T23:09:23.874Z,19.50
2018-11-01T23:11:51.014Z,19.50
2018-11-01T23:14:18.132Z,19.50
2018-11-01T23:16:45.256Z,19.50
2018-11-01T23:19:12.803Z,19.50
2018-11-01T23:21:39.950Z,19.50
2018-11-01T23:24:07.078Z,19.50
2018-11-01T23:26:34.195Z,19.50
2018-11-01T23:29:01.323Z,19.50
2018-11-01T23:31:28.421Z,19.50
2018-11-01T23:33:55.511Z,19.50
2018-11-01T23:36:22.222Z,19.40
2018-11-01T23:38:55.068Z,19.40
2018-11-01T23:41:27.977Z,19.40
2018-11-01T23:44:00.927Z,19.50
2018-11-01T23:46:33.866Z,19.50
2018-11-01T23:49:10.622Z,19.40
2018-11-01T23:51:37.748Z,19.40
2018-11-01T23:54:04.855Z,19.40
2018-11-01T23:56:31.980Z,19.40
2018-11-01T23:58:59.115Z,19.40
